Frankfort, MI (49635)

5:54 PM EST on February 12, 2016 (GMT -0500)
Frankfort | | Change Station
CLOSE
Current Station
Personal Weather Station
Location: Frankfort, MI
Elevation: 587 ft
Nearby Weather Stations
Active Advisory: Winter Weather Advisory

Elev 587 ft 44.63 °N, 86.24 °W | Updated 7 minutes ago

Haze
Haze
9.7 °F
Feels Like -6 °F
N
13.0
Wind Variable Wind from WNW
Gusts 25.3 mph

Today
High -- | Low -- °F
--% Chance of Precip.
Yesterday
High -- | Low -- °F
Precip. -- in
Pressure 30.16 in
Visibility 2.5 miles
Clouds Scattered Clouds 1800 ft
Mostly Cloudy 2500 ft
Overcast 3900 ft
Windchill -6 °F
Dew Point 0 °F
Humidity 65%
Rainfall 0.09 in
Snow Depth Not available.
7:50 AM 6:08 PM
Waxing Crescent, 24% visible
METAR KFKS 122233Z AUTO 35015G22KT 2 1/2SM HZ SCT018 BKN025 OVC039 M12/M18 A3016 RMK AO2 T11161179
Pressure 30.16 in
Visibility 2.5 miles
Clouds Scattered Clouds 1800 ft
Mostly Cloudy 2500 ft
Overcast 3900 ft
Windchill -6 °F
Dew Point 0 °F
Humidity 65%
Rainfall 0.09 in
Snow Depth Not available.
7:50 AM 6:08 PM
Waxing Crescent, 24% visible
METAR KFKS 122233Z AUTO 35015G22KT 2 1/2SM HZ SCT018 BKN025 OVC039 M12/M18 A3016 RMK AO2 T11161179

10-Day Weather Forecast

Almanac

Astronomy

Feb. 12, 2016 Rise Set
Actual Time
Civil Twilight
Nautical Twilight
Astronomical Twilight
Moon
Length of Visible Light
Length of Day
Tomorrow will be .
, % of the Moon is Illuminated

Today's Extremes

State Highs State Lows

Community

WunderPhotos

Upload Photos

1,892,424 photos uploaded!

WunderBlog® & News

Nearby

Air Quality

  Air Quality AQ Index Pollutant
Not available.

Snow Depth

Station Depth Elevation

Earthquake Activity

City Distance Mag. Time & Date
Minimum magnitude displayed is 2.5.

Coastal Water Temperatures

Place Temperature

Stations

Nearby Weather Stations

Station Location Temp. Windchill Dew Point Humidity Wind Precip. Elev Updated Type
                   

Watches & Warnings

Winter Weather Advisory
Issued: 3:39 PM EST Feb. 12, 2016 – National Weather Service

... Winter Weather Advisory remains in effect until noon EST
Saturday...

* lake effect snow showers will continue tonight and Saturday.

* Total nighttime snow accumulations will range from 1 to 4
inches... with the highest amounts in Leelanau... Grand
Traverse... Antrim... and Kalkaska counties.

* Gusty northwest winds will produce blowing and drifting
snow... especially this evening.

* Look for periods of poor visibility and slippery Road
conditions.